Time;durP1;ratioP1;P1;durP2;ratioP2;P2;SDS_P1;SDS_P2;PMS_P1;PMS_P2;Temp;Humidity;BMP_temperature;BMP_pressure;BME280_temperature;BME280_humidity;BME280_pressure;Samples;Min_cycle;Max_cycle;Signal;HPM_P1;HPM_P2
2021/08/17 00:01:26;;;;;;;8.13;4.97;;;;;;;19.79;100.00;98069.58;2230541;80;20996;-88
2021/08/17 00:04:26;;;;;;;5.60;3.67;;;;;;;19.55;100.00;98066.95;2224688;79;21055;-88
2021/08/17 00:07:27;;;;;;;7.72;4.05;;;;;;;19.38;100.00;98088.30;2217334;80;21123;-90
2021/08/17 00:10:27;;;;;;;5.90;4.50;;;;;;;19.17;99.77;98086.51;2218724;80;20962;-87
2021/08/17 00:13:28;;;;;;;4.70;2.92;;;;;;;19.00;100.00;98078.63;2218670;80;21128;-87
2021/08/17 00:16:29;;;;;;;7.78;4.62;;;;;;;18.82;100.00;98070.48;2157591;83;21049;-87
2021/08/17 00:19:29;;;;;;;6.25;4.55;;;;;;;18.69;100.00;98069.54;2167814;80;21002;-87
2021/08/17 00:22:30;;;;;;;5.62;4.03;;;;;;;18.59;100.00;98068.86;2198335;80;21361;-89
2021/08/17 00:25:30;;;;;;;8.08;4.10;;;;;;;18.55;100.00;98068.27;2218322;80;21040;-87
2021/08/17 00:28:31;;;;;;;7.35;4.40;;;;;;;18.48;100.00;98070.59;2217055;80;20934;-87
2021/08/17 00:31:32;;;;;;;7.58;5.05;;;;;;;18.45;100.00;98060.45;2210593;81;21038;-87
2021/08/17 00:34:32;;;;;;;5.97;4.08;;;;;;;18.45;100.00;98061.78;2210171;81;21001;-86
2021/08/17 00:37:33;;;;;;;5.47;3.90;;;;;;;18.38;100.00;98047.94;2210246;80;21034;-87
2021/08/17 00:40:34;;;;;;;7.62;4.47;;;;;;;18.33;100.00;98058.98;2209691;81;20959;-88
2021/08/17 00:43:34;;;;;;;7.30;4.42;;;;;;;18.25;100.00;98056.22;2209353;81;21061;-90
2021/08/17 00:46:35;;;;;;;6.90;4.03;;;;;;;18.11;100.00;98061.09;2208849;81;20997;-89
2021/08/17 00:49:36;;;;;;;5.87;3.72;;;;;;;18.01;100.00;98063.56;2209159;80;21045;-89
2021/08/17 00:52:36;;;;;;;5.03;3.83;;;;;;;17.94;100.00;98066.13;2209588;80;21028;-90
2021/08/17 00:55:37;;;;;;;7.20;3.87;;;;;;;17.87;100.00;98071.58;2230393;80;21599;-88
2021/08/17 00:58:38;;;;;;;8.35;4.15;;;;;;;17.86;100.00;98074.75;2232942;80;20965;-90
2021/08/17 01:01:38;;;;;;;9.40;4.53;;;;;;;17.88;100.00;98080.59;2233042;80;21056;-89
2021/08/17 01:04:39;;;;;;;6.03;3.35;;;;;;;17.93;100.00;98094.45;2231974;80;20989;-92
2021/08/17 01:07:39;;;;;;;4.62;3.15;;;;;;;17.84;100.00;98107.30;2258049;78;20946;-92
2021/08/17 01:10:41;;;;;;;4.45;2.67;;;;;;;17.81;100.00;98113.05;2258974;78;21085;-92
2021/08/17 01:13:41;;;;;;;6.05;3.55;;;;;;;17.69;100.00;98106.20;2219798;79;21044;-90
2021/08/17 01:16:42;;;;;;;4.67;3.30;;;;;;;17.57;100.00;98108.41;2232536;80;21016;-91
2021/08/17 01:19:43;;;;;;;5.55;3.45;;;;;;;17.50;100.00;98101.13;2228260;80;20990;-86
2021/08/17 01:22:43;;;;;;;6.80;4.72;;;;;;;17.42;100.00;98124.53;2213433;80;21096;-86
2021/08/17 01:25:44;;;;;;;5.17;3.50;;;;;;;17.43;100.00;98139.36;2212709;80;21587;-90
2021/08/17 01:28:45;;;;;;;6.55;3.75;;;;;;;17.42;100.00;98143.86;2210820;80;21004;-89
2021/08/17 01:31:46;;;;;;;6.62;4.58;;;;;;;17.43;100.00;98145.46;2210822;80;22230;-90
2021/08/17 01:34:47;;;;;;;5.05;3.15;;;;;;;17.48;100.00;98128.88;2210803;80;20973;-90
2021/08/17 01:37:48;;;;;;;7.72;3.83;;;;;;;17.46;100.00;98092.56;2210710;80;21517;-90
2021/08/17 01:40:48;;;;;;;4.33;3.58;;;;;;;17.32;100.00;98076.20;2210765;80;20977;-90
2021/08/17 01:43:49;;;;;;;6.05;3.37;;;;;;;17.20;100.00;98082.88;2210755;80;21065;-90
2021/08/17 01:46:49;;;;;;;6.25;3.40;;;;;;;17.13;100.00;98081.42;2210698;80;20998;-90
2021/08/17 01:49:50;;;;;;;5.33;3.45;;;;;;;17.14;100.00;98079.05;2210862;80;21095;-91
2021/08/17 01:52:51;;;;;;;5.35;3.80;;;;;;;17.10;100.00;98061.54;2210818;80;21518;-91
2021/08/17 01:55:51;;;;;;;5.55;3.30;;;;;;;17.08;100.00;98078.14;2210881;80;21057;-91
2021/08/17 02:02:02;;;;;;;6.15;3.05;;;;;;;17.05;100.00;98068.84;2152384;80;21150;-89
2021/08/17 02:05:03;;;;;;;7.62;4.20;;;;;;;17.08;100.00;98088.72;2150301;83;21057;-91
2021/08/17 02:08:03;;;;;;;3.40;3.10;;;;;;;17.05;100.00;98092.65;2150157;83;22119;-91
2021/08/17 02:11:04;;;;;;;5.45;3.15;;;;;;;17.00;100.00;98089.09;2150179;83;21015;-92
2021/08/17 02:14:05;;;;;;;5.95;3.47;;;;;;;16.97;100.00;98086.94;2150790;83;20997;-92
2021/08/17 02:17:06;;;;;;;6.05;3.67;;;;;;;16.96;100.00;98083.48;2150317;83;21028;-93
2021/08/17 02:20:07;;;;;;;6.78;3.17;;;;;;;16.96;100.00;98098.03;2150222;83;21005;-93
2021/08/17 02:23:07;;;;;;;4.92;3.42;;;;;;;16.96;100.00;98085.33;2150142;83;21043;-92
2021/08/17 02:26:08;;;;;;;6.05;3.27;;;;;;;16.89;100.00;98082.81;2150166;83;21514;-94
2021/08/17 02:29:09;;;;;;;4.47;3.52;;;;;;;16.91;100.00;98079.93;2150203;83;20976;-92
2021/08/17 02:32:10;;;;;;;5.17;3.37;;;;;;;16.93;100.00;98093.74;2150084;83;21539;-91
2021/08/17 02:35:10;;;;;;;6.00;4.03;;;;;;;16.93;100.00;98082.64;2150136;83;21040;-92
2021/08/17 02:38:11;;;;;;;7.20;3.62;;;;;;;16.91;100.00;98086.02;2150224;83;21471;-91
2021/08/17 02:41:12;;;;;;;4.12;3.05;;;;;;;16.86;100.00;98074.56;2150344;83;21084;-92
2021/08/17 02:44:13;;;;;;;4.92;2.85;;;;;;;16.85;100.00;98084.86;2150194;83;21016;-91
2021/08/17 02:47:14;;;;;;;4.15;3.00;;;;;;;16.79;100.00;98086.59;2150035;83;21546;-92
2021/08/17 02:50:17;;;;;;;4.83;3.60;;;;;;;16.77;100.00;98080.22;2149897;83;20989;-89
2021/08/17 02:53:18;;;;;;;5.67;3.35;;;;;;;16.74;100.00;98075.92;2150229;83;21025;-93
2021/08/17 02:56:19;;;;;;;4.00;3.47;;;;;;;16.72;100.00;98075.33;2150117;83;20995;-94
2021/08/17 02:59:20;;;;;;;3.42;2.60;;;;;;;16.69;100.00;98063.39;2150357;83;21020;-90
2021/08/17 03:02:21;;;;;;;5.33;3.00;;;;;;;16.65;100.00;98054.31;2122839;82;21041;-91
2021/08/17 03:05:21;;;;;;;4.17;2.95;;;;;;;16.60;100.00;98063.45;2119785;84;20997;-90
2021/08/17 03:08:22;;;;;;;5.55;3.52;;;;;;;16.56;100.00;98055.72;2119345;84;21032;-92
2021/08/17 03:11:25;;;;;;;6.25;3.10;;;;;;;16.56;100.00;98058.88;2119837;83;21475;-91
2021/08/17 03:14:26;;;;;;;3.90;3.40;;;;;;;16.53;100.00;98075.18;2119970;84;21053;-94
2021/08/17 03:17:26;;;;;;;6.33;2.80;;;;;;;16.52;100.00;98075.70;2120223;84;20965;-94
2021/08/17 03:20:27;;;;;;;6.33;3.35;;;;;;;16.54;100.00;98082.06;2120215;84;21001;-94
2021/08/17 03:23:28;;;;;;;5.67;3.77;;;;;;;16.55;100.00;98089.78;2120027;84;21032;-94
2021/08/17 03:26:29;;;;;;;8.53;3.98;;;;;;;16.57;100.00;98100.12;2077871;86;21012;-94
2021/08/17 03:29:29;;;;;;;5.90;3.47;;;;;;;16.60;100.00;98117.63;2078073;86;21600;-94
2021/08/17 03:32:30;;;;;;;6.08;3.12;;;;;;;16.60;100.00;98123.43;2119979;83;21063;-95
2021/08/17 03:35:31;;;;;;;4.87;3.17;;;;;;;16.61;100.00;98119.75;2119850;84;21475;-93
2021/08/17 03:38:32;;;;;;;5.72;2.75;;;;;;;16.57;100.00;98121.27;2120173;84;21067;-91
2021/08/17 03:41:33;;;;;;;7.83;4.50;;;;;;;16.55;100.00;98110.09;2119636;83;20988;-91
2021/08/17 03:44:33;;;;;;;6.03;3.80;;;;;;;16.48;100.00;98112.88;2119624;84;21065;-89
2021/08/17 03:47:34;;;;;;;4.87;3.25;;;;;;;16.49;100.00;98121.89;2119725;84;21001;-92
2021/08/17 03:50:35;;;;;;;4.58;3.33;;;;;;;16.49;100.00;98127.70;2119752;84;21097;-94
2021/08/17 03:53:36;;;;;;;4.78;3.67;;;;;;;16.48;100.00;98126.90;2120092;84;21543;-95
2021/08/17 03:56:37;;;;;;;3.92;3.10;;;;;;;16.48;100.00;98143.27;2119908;84;21053;-93
2021/08/17 03:59:38;;;;;;;4.28;2.90;;;;;;;16.46;100.00;98137.42;2077647;86;21048;-93
2021/08/17 04:02:38;;;;;;;4.53;3.35;;;;;;;16.42;100.00;98135.73;2146958;82;21032;-93
2021/08/17 04:05:39;;;;;;;5.50;3.60;;;;;;;16.43;100.00;98142.63;2149942;83;21519;-93
2021/08/17 04:08:40;;;;;;;5.83;3.22;;;;;;;16.43;100.00;98147.11;2149925;83;21072;-93
2021/08/17 04:11:41;;;;;;;4.92;3.72;;;;;;;16.45;100.00;98166.17;2150066;83;20960;-93
2021/08/17 04:14:42;;;;;;;7.53;3.35;;;;;;;16.45;100.00;98166.17;2149876;83;21040;-92
2021/08/17 04:17:42;;;;;;;4.55;3.33;;;;;;;16.48;100.00;98184.23;2150084;83;20953;-93
2021/08/17 04:20:43;;;;;;;7.42;4.12;;;;;;;16.48;100.00;98171.02;2149976;83;20965;-93
2021/08/17 04:23:44;;;;;;;5.62;3.37;;;;;;;16.45;100.00;98170.94;2149880;83;21012;-92
2021/08/17 04:26:45;;;;;;;3.80;3.45;;;;;;;16.44;100.00;98173.81;2149796;83;21131;-91
2021/08/17 04:29:45;;;;;;;4.67;3.25;;;;;;;16.49;100.00;98175.27;2149992;83;21030;-91
2021/08/17 04:32:46;;;;;;;6.55;3.65;;;;;;;16.49;100.00;98175.27;2150038;83;21079;-90
2021/08/17 04:35:47;;;;;;;4.08;3.30;;;;;;;16.52;100.00;98188.52;2150165;83;21059;-90
2021/08/17 04:38:48;;;;;;;8.30;3.60;;;;;;;16.53;100.00;98196.22;2150035;83;21028;-92
2021/08/17 04:41:48;;;;;;;3.55;3.10;;;;;;;16.53;100.00;98208.11;2149646;83;21056;-91
2021/08/17 04:44:49;;;;;;;7.58;4.35;;;;;;;16.57;100.00;98220.36;2149730;83;20962;-91
2021/08/17 04:47:51;;;;;;;11.70;3.80;;;;;;;16.61;100.00;98228.91;2149836;83;21061;-91
2021/08/17 04:50:52;;;;;;;6.90;4.10;;;;;;;16.69;100.00;98237.05;2150765;83;21336;-90
2021/08/17 04:53:52;;;;;;;3.52;3.20;;;;;;;16.73;100.00;98244.30;2150403;83;21079;-91
2021/08/17 04:56:53;;;;;;;3.90;3.55;;;;;;;16.82;100.00;98246.57;2150440;83;20953;-88
2021/08/17 04:59:54;;;;;;;7.28;3.55;;;;;;;16.88;100.00;98258.88;2149879;83;21096;-92
2021/08/17 05:02:55;;;;;;;3.87;3.22;;;;;;;16.99;100.00;98263.35;2149801;82;21083;-92
2021/08/17 05:05:56;;;;;;;5.25;2.80;;;;;;;17.07;100.00;98257.71;2149689;83;21682;-91
2021/08/17 05:08:57;;;;;;;5.50;3.15;;;;;;;17.16;100.00;98266.09;2150013;83;20996;-93
2021/08/17 05:12:00;;;;;;;4.62;2.52;;;;;;;17.25;100.00;98270.80;2150627;83;21049;-92
2021/08/17 05:15:00;;;;;;;2.45;2.25;;;;;;;17.36;100.00;98274.45;2150461;83;21016;-90
2021/08/17 05:18:02;;;;;;;2.37;2.17;;;;;;;17.38;100.00;98262.33;2150290;83;21072;-89
2021/08/17 05:21:03;;;;;;;5.92;2.37;;;;;;;17.44;100.00;98268.80;2150564;83;21040;-88
2021/08/17 05:24:05;;;;;;;2.92;1.82;;;;;;;17.57;100.00;98274.36;2119435;83;21032;-89
2021/08/17 05:27:06;;;;;;;4.22;1.75;;;;;;;17.64;100.00;98276.33;2150108;83;21594;-88
2021/08/17 05:30:07;;;;;;;1.95;1.52;;;;;;;17.63;100.00;98276.05;2150316;83;20976;-92
2021/08/17 05:33:08;;;;;;;3.92;1.70;;;;;;;17.54;100.00;98282.23;2118927;83;21112;-90
2021/08/17 05:36:09;;;;;;;2.12;1.90;;;;;;;17.46;100.00;98286.56;2149695;83;21004;-90
2021/08/17 05:39:09;;;;;;;1.65;1.35;;;;;;;17.47;100.00;98281.58;2150513;83;21016;-92
2021/08/17 05:42:10;;;;;;;3.58;1.77;;;;;;;17.50;100.00;98288.23;2150215;83;21099;-88
2021/08/17 05:45:11;;;;;;;4.00;1.82;;;;;;;17.42;100.00;98292.57;2150179;83;21037;-91
2021/08/17 05:48:12;;;;;;;2.12;1.70;;;;;;;17.31;100.00;98293.69;2150295;83;21531;-91
2021/08/17 05:51:13;;;;;;;5.15;1.35;;;;;;;17.33;100.00;98300.87;2150618;83;21064;-91
2021/08/17 05:54:14;;;;;;;1.77;1.32;;;;;;;17.31;100.00;98301.63;2150216;83;21048;-91
2021/08/17 05:57:15;;;;;;;3.35;1.52;;;;;;;17.24;100.00;98300.13;2150104;83;21060;-91
2021/08/17 06:00:15;;;;;;;1.17;1.07;;;;;;;17.23;100.00;98301.17;2149996;83;21039;-91
2021/08/17 06:03:16;;;;;;;1.82;1.67;;;;;;;17.23;100.00;98305.14;2121405;83;21555;-90
2021/08/17 06:06:17;;;;;;;1.85;1.75;;;;;;;17.17;100.00;98307.38;2119684;84;21018;-90
2021/08/17 06:09:22;;;;;;;1.45;1.20;;;;;;;17.18;100.00;98314.27;2119883;84;21023;-91
2021/08/17 06:12:21;;;;;;;4.62;1.52;;;;;;;17.15;100.00;98322.69;2119181;84;21036;-90
2021/08/17 06:15:22;;;;;;;1.17;1.07;;;;;;;17.04;100.00;98317.17;2119945;84;21018;-89
2021/08/17 06:18:23;;;;;;;2.10;2.00;;;;;;;17.00;100.00;98322.62;2121027;84;21028;-90
2021/08/17 06:21:24;;;;;;;2.42;1.37;;;;;;;16.94;100.00;98324.08;2119901;83;21127;-90
2021/08/17 06:24:25;;;;;;;1.82;1.70;;;;;;;16.85;100.00;98335.51;2119776;83;21007;-90
2021/08/17 06:27:26;;;;;;;1.95;1.52;;;;;;;16.79;100.00;98336.41;2119665;83;21048;-89
2021/08/17 06:30:26;;;;;;;2.75;1.55;;;;;;;16.56;100.00;98329.75;2119784;83;21004;-90
2021/08/17 06:33:27;;;;;;;1.98;1.77;;;;;;;16.55;100.00;98325.47;2119439;84;20977;-89
2021/08/17 06:36:28;;;;;;;3.02;1.75;;;;;;;16.57;100.00;98324.75;2119478;83;21144;-90
2021/08/17 06:39:31;;;;;;;4.12;1.55;;;;;;;16.57;100.00;98335.33;2119291;83;20992;-89
2021/08/17 06:42:31;;;;;;;4.30;1.85;;;;;;;16.56;100.00;98337.17;2119898;84;21587;-89
2021/08/17 06:45:32;;;;;;;2.37;1.70;;;;;;;16.63;100.00;98339.69;2119952;83;21032;-91
2021/08/17 06:48:33;;;;;;;2.25;1.50;;;;;;;16.75;100.00;98344.00;2119967;84;21491;-90
2021/08/17 06:51:34;;;;;;;2.12;1.65;;;;;;;16.77;100.00;98353.03;2119877;84;21007;-89
2021/08/17 06:54:34;;;;;;;8.50;1.65;;;;;;;16.81;100.00;98352.04;2119786;83;21032;-89
2021/08/17 06:57:36;;;;;;;5.25;1.98;;;;;;;16.73;100.00;98351.85;2119736;84;21143;-89
2021/08/17 07:00:37;;;;;;;2.42;1.35;;;;;;;16.63;100.00;98358.98;2119838;83;20985;-90
2021/08/17 07:03:38;;;;;;;3.22;1.95;;;;;;;16.60;100.00;98358.12;2149014;83;21090;-90
2021/08/17 07:06:39;;;;;;;2.25;1.70;;;;;;;16.63;100.00;98363.47;2150073;83;21060;-90
2021/08/17 07:09:40;;;;;;;4.33;2.20;;;;;;;16.65;100.00;98362.75;2150091;83;21012;-90
2021/08/17 07:12:40;;;;;;;3.05;1.40;;;;;;;16.70;100.00;98364.22;2150064;83;21012;-90
2021/08/17 07:15:41;;;;;;;5.60;1.80;;;;;;;16.79;100.00;98369.46;2150071;83;20989;-90
2021/08/17 07:18:42;;;;;;;2.40;1.42;;;;;;;16.82;100.00;98373.48;2150027;83;20980;-89
2021/08/17 07:21:43;;;;;;;5.08;1.77;;;;;;;16.76;100.00;98376.53;2150023;83;21468;-88
2021/08/17 07:24:44;;;;;;;3.55;1.70;;;;;;;16.74;100.00;98372.00;2149974;83;21064;-88
2021/08/17 07:27:44;;;;;;;1.87;1.50;;;;;;;16.78;100.00;98382.39;2149929;83;21060;-88
2021/08/17 07:30:45;;;;;;;3.98;1.82;;;;;;;16.86;100.00;98386.03;2150017;83;21145;-88
2021/08/17 07:33:46;;;;;;;1.75;1.60;;;;;;;16.90;100.00;98392.46;2150161;83;21028;-87
2021/08/17 07:36:47;;;;;;;2.00;1.35;;;;;;;16.89;100.00;98405.91;2150509;83;21016;-91
2021/08/17 07:39:48;;;;;;;2.60;1.80;;;;;;;16.85;100.00;98404.25;2150150;83;21609;-93
2021/08/17 07:42:48;;;;;;;3.47;1.37;;;;;;;16.88;100.00;98409.08;2150705;83;21009;-89
2021/08/17 07:45:49;;;;;;;2.33;1.35;;;;;;;16.92;100.00;98410.77;2150250;83;20951;-90
2021/08/17 07:48:50;;;;;;;6.12;1.62;;;;;;;17.00;100.00;98413.86;2149963;83;21088;-88
2021/08/17 07:51:51;;;;;;;3.60;2.60;;;;;;;17.08;100.00;98409.27;2154603;82;21492;-92
2021/08/17 07:54:51;;;;;;;2.65;2.05;;;;;;;17.09;100.00;98413.01;2154362;82;21076;-88
2021/08/17 07:57:52;;;;;;;3.17;1.67;;;;;;;17.12;98.63;98411.77;2149828;83;21053;-85
2021/08/17 08:00:52;;;;;;;3.55;1.85;;;;;;;17.21;99.50;98410.39;2134108;83;21042;-89
2021/08/17 08:03:53;;;;;;;3.05;2.37;;;;;;;17.33;98.95;98409.88;2064425;85;21010;-88
2021/08/17 08:06:54;;;;;;;3.17;1.90;;;;;;;17.47;98.21;98413.11;2060263;86;21125;-88
2021/08/17 08:09:55;;;;;;;2.85;1.85;;;;;;;17.58;98.41;98416.26;2065774;86;21126;-87
2021/08/17 08:12:55;;;;;;;2.22;1.72;;;;;;;17.78;96.90;98422.53;2085819;85;21004;-87
2021/08/17 08:15:56;;;;;;;3.65;1.95;;;;;;;17.82;96.16;98421.02;2147790;83;20987;-88
2021/08/17 08:19:01;;;;;;;4.08;2.08;;;;;;;17.75;95.65;98417.72;2147986;83;21075;-87
2021/08/17 08:22:02;;;;;;;1.87;1.72;;;;;;;17.77;95.70;98419.60;2147434;83;21103;-86
2021/08/17 08:25:03;;;;;;;3.75;2.50;;;;;;;17.82;95.34;98423.14;2147617;83;20957;-86
